Time;durP1;ratioP1;P1;durP2;ratioP2;P2;SDS_P1;SDS_P2;PMS_P1;PMS_P2;Temp;Humidity;BMP_temperature;BMP_pressure;BME280_temperature;BME280_humidity;BME280_pressure;Samples;Min_cycle;Max_cycle;Signal;HPM_P1;HPM_P2
2023/07/23 00:03:55;;;;;;;4.97;2.55;;;;;;;;;;8243121;28;20030;-71
2023/07/23 00:07:56;;;;;;;3.92;2.50;;;;;;;;;;8241173;28;20027;-71
2023/07/23 00:11:56;;;;;;;2.63;2.15;;;;;;;;;;8242997;28;20368;-72
2023/07/23 00:15:56;;;;;;;4.05;2.55;;;;;;;;;;8242488;28;20034;-73
2023/07/23 00:19:57;;;;;;;2.60;2.40;;;;;;;;;;8240856;28;20918;-73
2023/07/23 00:23:57;;;;;;;4.28;2.53;;;;;;;;;;8241546;28;20281;-72
2023/07/23 00:27:57;;;;;;;5.13;2.40;;;;;;;;;;8241894;28;20692;-72
2023/07/23 00:31:57;;;;;;;4.68;2.45;;;;;;;;;;8238372;28;20479;-72
2023/07/23 00:35:58;;;;;;;3.42;2.55;;;;;;;;;;8232869;28;20030;-72
2023/07/23 00:39:58;;;;;;;2.50;2.20;;;;;;;;;;8239154;28;20041;-72
2023/07/23 00:43:58;;;;;;;3.20;2.53;;;;;;;;;;8239342;28;20026;-72
2023/07/23 00:47:59;;;;;;;3.40;2.20;;;;;;;;;;8238163;28;20281;-72
2023/07/23 00:51:59;;;;;;;3.80;2.67;;;;;;;;;;8238343;28;20663;-72
2023/07/23 00:55:59;;;;;;;4.45;2.28;;;;;;;;;;8238994;28;20101;-73
2023/07/23 01:00:00;;;;;;;3.35;2.60;;;;;;;;;;8238477;28;20022;-72
2023/07/23 01:04:00;;;;;;;3.88;2.45;;;;;;;;;;8238444;28;20864;-71
2023/07/23 01:08:02;;;;;;;3.75;2.40;;;;;;;;;;8219985;28;20044;-72
2023/07/23 01:12:02;;;;;;;4.22;2.20;;;;;;;;;;8240256;28;20733;-71
2023/07/23 01:16:07;;;;;;;3.08;2.35;;;;;;;;;;8237493;28;20125;-71
2023/07/23 01:20:07;;;;;;;3.13;2.38;;;;;;;;;;8235946;28;20534;-72
2023/07/23 01:24:07;;;;;;;2.95;2.50;;;;;;;;;;8235065;28;20414;-71
2023/07/23 01:28:08;;;;;;;3.03;2.63;;;;;;;;;;8237535;28;20149;-71
2023/07/23 01:32:08;;;;;;;4.63;2.55;;;;;;;;;;8222448;28;20777;-71
2023/07/23 01:36:09;;;;;;;3.90;2.60;;;;;;;;;;8236470;28;20034;-71
2023/07/23 01:40:09;;;;;;;3.03;2.38;;;;;;;;;;8236413;28;20049;-71
2023/07/23 01:44:10;;;;;;;4.00;2.35;;;;;;;;;;8236867;28;20026;-72
2023/07/23 01:48:11;;;;;;;4.72;2.25;;;;;;;;;;8238784;28;20486;-71
2023/07/23 01:52:11;;;;;;;6.68;2.42;;;;;;;;;;8236754;28;20104;-71
2023/07/23 01:56:11;;;;;;;3.72;2.28;;;;;;;;;;8231906;28;20022;-71
2023/07/23 02:00:11;;;;;;;2.80;2.50;;;;;;;;;;8238577;28;20136;-71
2023/07/23 02:04:12;;;;;;;5.80;2.63;;;;;;;;;;8239726;28;20458;-71
2023/07/23 02:08:12;;;;;;;3.08;2.47;;;;;;;;;;8239581;28;20091;-71
2023/07/23 02:12:13;;;;;;;5.70;2.73;;;;;;;;;;8229525;28;20071;-71
2023/07/23 02:16:17;;;;;;;4.45;2.30;;;;;;;;;;8241996;28;20038;-72
2023/07/23 02:20:17;;;;;;;2.75;2.53;;;;;;;;;;8236641;28;20022;-72
2023/07/23 02:24:17;;;;;;;4.85;2.58;;;;;;;;;;8238656;28;20465;-71
2023/07/23 02:28:18;;;;;;;3.88;2.50;;;;;;;;;;8237568;28;20022;-72
2023/07/23 02:32:18;;;;;;;2.97;2.50;;;;;;;;;;8237268;28;20065;-72
2023/07/23 02:36:18;;;;;;;4.22;2.60;;;;;;;;;;8238831;28;20034;-71
2023/07/23 02:40:19;;;;;;;4.43;2.70;;;;;;;;;;8239365;28;20033;-72
2023/07/23 02:44:19;;;;;;;3.28;2.60;;;;;;;;;;8238505;28;20040;-72
2023/07/23 02:48:19;;;;;;;5.95;2.72;;;;;;;;;;8236261;28;20034;-72
2023/07/23 02:52:19;;;;;;;3.43;2.63;;;;;;;;;;8235803;28;20042;-72
2023/07/23 02:56:20;;;;;;;6.40;2.83;;;;;;;;;;8237908;28;20122;-71
2023/07/23 03:00:20;;;;;;;4.90;2.80;;;;;;;;;;8238763;28;20021;-72
2023/07/23 03:04:26;;;;;;;5.10;2.75;;;;;;;;;;8218744;28;20041;-72
2023/07/23 03:08:26;;;;;;;6.22;2.88;;;;;;;;;;8237680;28;20021;-72
2023/07/23 03:12:26;;;;;;;5.47;2.78;;;;;;;;;;8240203;28;20448;-72
2023/07/23 03:16:26;;;;;;;3.47;2.78;;;;;;;;;;8242996;28;20041;-71
2023/07/23 03:20:27;;;;;;;3.75;2.80;;;;;;;;;;8241349;28;20041;-72
2023/07/23 03:24:27;;;;;;;4.95;2.83;;;;;;;;;;8243222;28;20021;-73
2023/07/23 03:28:27;;;;;;;4.50;2.58;;;;;;;;;;8242609;28;20049;-72
2023/07/23 03:32:27;;;;;;;2.93;2.60;;;;;;;;;;8240373;28;20045;-72
2023/07/23 03:36:27;;;;;;;4.30;2.38;;;;;;;;;;8241393;28;20030;-72
2023/07/23 03:40:28;;;;;;;4.63;2.20;;;;;;;;;;8240896;28;20053;-73
2023/07/23 03:44:28;;;;;;;2.40;2.20;;;;;;;;;;8241805;28;21191;-72
2023/07/23 03:48:28;;;;;;;3.15;2.30;;;;;;;;;;8232476;28;20041;-72
2023/07/23 03:52:28;;;;;;;3.58;2.35;;;;;;;;;;8243154;28;20030;-72
2023/07/23 03:56:29;;;;;;;5.97;2.57;;;;;;;;;;8243878;28;20728;-72
2023/07/23 04:00:29;;;;;;;5.55;2.33;;;;;;;;;;8242393;28;20565;-72
2023/07/23 04:04:29;;;;;;;2.90;2.25;;;;;;;;;;8243523;28;20024;-72
2023/07/23 04:08:29;;;;;;;4.40;2.00;;;;;;;;;;8241689;28;20025;-73
2023/07/23 04:12:33;;;;;;;2.60;2.15;;;;;;;;;;8242455;28;20031;-72
2023/07/23 04:16:33;;;;;;;;;;;;;;;;;;8244527;28;20042;-72
2023/07/23 04:20:36;;;;;;;4.77;2.50;;;;;;;;;;8242047;28;19928;-73
2023/07/23 04:24:36;;;;;;;2.08;1.90;;;;;;;;;;8240021;28;20421;-72
2023/07/23 04:28:37;;;;;;;2.80;2.33;;;;;;;;;;8225706;28;20026;-73
2023/07/23 04:32:37;;;;;;;4.43;2.20;;;;;;;;;;8238914;28;20676;-72
2023/07/23 04:36:37;;;;;;;4.03;2.50;;;;;;;;;;8239962;28;20030;-72
2023/07/23 04:40:37;;;;;;;2.35;2.15;;;;;;;;;;8239589;28;20010;-72
2023/07/23 04:44:37;;;;;;;6.45;2.97;;;;;;;;;;8241375;28;20592;-72
2023/07/23 04:48:38;;;;;;;3.40;2.20;;;;;;;;;;8240311;28;20068;-72
2023/07/23 04:52:38;;;;;;;5.93;2.30;;;;;;;;;;8223230;28;20109;-72
2023/07/23 04:56:38;;;;;;;2.70;2.50;;;;;;;;;;8240429;28;20018;-72
2023/07/23 05:00:38;;;;;;;2.70;2.37;;;;;;;;;;8240169;28;20034;-72
2023/07/23 05:04:39;;;;;;;2.75;2.20;;;;;;;;;;8241412;28;20488;-71
2023/07/23 05:08:39;;;;;;;2.22;2.03;;;;;;;;;;8239119;28;20045;-72
2023/07/23 05:12:39;;;;;;;2.72;1.95;;;;;;;;;;8243213;28;20915;-72
2023/07/23 05:16:40;;;;;;;4.85;2.03;;;;;;;;;;8239025;28;20038;-72
2023/07/23 05:20:40;;;;;;;3.20;1.90;;;;;;;;;;8241155;28;20489;-72
2023/07/23 05:24:40;;;;;;;4.00;2.00;;;;;;;;;;8239551;28;20030;-72
2023/07/23 05:28:41;;;;;;;3.10;2.25;;;;;;;;;;8239269;28;20041;-72
2023/07/23 05:32:41;;;;;;;2.45;1.92;;;;;;;;;;8239164;28;20603;-72
2023/07/23 05:36:41;;;;;;;2.80;2.08;;;;;;;;;;8237284;28;20072;-72
2023/07/23 05:40:42;;;;;;;2.88;2.10;;;;;;;;;;8238891;28;20030;-72
2023/07/23 05:44:42;;;;;;;2.78;1.90;;;;;;;;;;8241222;28;20022;-72
2023/07/23 05:48:42;;;;;;;3.03;1.80;;;;;;;;;;8238699;28;20038;-72
2023/07/23 05:52:42;;;;;;;2.10;1.90;;;;;;;;;;8241224;28;20038;-72
2023/07/23 05:56:42;;;;;;;4.73;2.10;;;;;;;;;;8243257;28;20026;-72
2023/07/23 06:00:43;;;;;;;1.88;1.77;;;;;;;;;;8241068;28;20283;-72
2023/07/23 06:04:43;;;;;;;7.37;1.80;;;;;;;;;;8239267;28;20025;-72
2023/07/23 06:08:43;;;;;;;1.80;1.67;;;;;;;;;;8220398;28;20030;-71
2023/07/23 06:12:43;;;;;;;3.80;1.75;;;;;;;;;;8238622;28;20145;-72
2023/07/23 06:16:43;;;;;;;2.17;1.50;;;;;;;;;;8237327;28;20073;-72
2023/07/23 06:20:43;;;;;;;3.35;1.70;;;;;;;;;;8240031;28;20038;-72
2023/07/23 06:24:44;;;;;;;2.13;1.50;;;;;;;;;;8238823;28;20034;-72
2023/07/23 06:28:44;;;;;;;1.83;1.70;;;;;;;;;;8237663;28;20022;-72
2023/07/23 06:32:44;;;;;;;2.30;1.60;;;;;;;;;;8235907;28;20781;-72
2023/07/23 06:36:45;;;;;;;3.00;1.50;;;;;;;;;;8239043;28;20026;-72
2023/07/23 06:40:46;;;;;;;1.75;1.30;;;;;;;;;;8238731;28;20293;-72
2023/07/23 06:44:46;;;;;;;6.75;1.60;;;;;;;;;;8220454;28;20050;-72
2023/07/23 06:48:47;;;;;;;2.08;1.52;;;;;;;;;;8241011;28;20030;-72
2023/07/23 06:52:47;;;;;;;3.65;1.80;;;;;;;;;;8246178;28;20019;-72
2023/07/23 06:56:47;;;;;;;1.90;1.67;;;;;;;;;;8244368;28;20026;-72
2023/07/23 07:00:48;;;;;;;5.38;1.45;;;;;;;;;;8244626;28;20615;-72
2023/07/23 07:04:48;;;;;;;1.60;1.50;;;;;;;;;;8227457;28;20061;-72
2023/07/23 07:08:48;;;;;;;2.10;1.40;;;;;;;;;;8245316;28;20092;-72
2023/07/23 07:12:48;;;;;;;5.10;1.60;;;;;;;;;;8245832;28;20117;-72
2023/07/23 07:16:48;;;;;;;3.28;1.58;;;;;;;;;;8243815;28;20368;-72
2023/07/23 07:20:58;;;;;;;2.80;1.80;;;;;;;;;;8245324;28;20556;-72
2023/07/23 07:24:58;;;;;;;1.70;1.60;;;;;;;;;;8245765;28;20363;-72
2023/07/23 07:28:58;;;;;;;3.05;1.63;;;;;;;;;;8224924;28;20053;-72
2023/07/23 07:32:58;;;;;;;1.88;1.70;;;;;;;;;;8239961;28;20227;-72
2023/07/23 07:36:59;;;;;;;2.45;1.25;;;;;;;;;;8241226;28;20050;-72
2023/07/23 07:41:01;;;;;;;1.65;1.30;;;;;;;;;;8245325;28;20227;-72
2023/07/23 07:45:01;;;;;;;1.58;1.40;;;;;;;;;;8242439;28;20022;-72
2023/07/23 07:49:02;;;;;;;1.35;1.25;;;;;;;;;;8242034;28;20038;-73
2023/07/23 07:53:02;;;;;;;5.28;1.63;;;;;;;;;;8243234;28;20018;-72
2023/07/23 07:57:03;;;;;;;4.85;1.30;;;;;;;;;;8241635;28;20054;-72
2023/07/23 08:01:03;;;;;;;1.30;1.17;;;;;;;;;;8238714;28;20539;-72
2023/07/23 08:05:04;;;;;;;2.83;1.33;;;;;;;;;;8241269;28;20402;-72
2023/07/23 08:09:07;;;;;;;1.80;1.48;;;;;;;;;;8241671;28;20018;-72
2023/07/23 08:13:09;;;;;;;1.73;1.33;;;;;;;;;;8243948;28;20076;-72
2023/07/23 08:17:10;;;;;;;1.45;1.35;;;;;;;;;;8241669;28;20098;-73
2023/07/23 08:21:13;;;;;;;1.30;1.20;;;;;;;;;;8242583;28;20026;-74
2023/07/23 08:25:13;;;;;;;1.30;1.20;;;;;;;;;;8242637;28;20026;-69
2023/07/23 08:29:13;;;;;;;2.03;1.30;;;;;;;;;;8244756;28;20042;-69
2023/07/23 08:33:15;;;;;;;1.37;1.27;;;;;;;;;;8242090;28;20030;-69
2023/07/23 08:37:16;;;;;;;1.50;1.30;;;;;;;;;;8242169;28;20285;-69
2023/07/23 08:41:23;;;;;;;1.33;1.20;;;;;;;;;;8244595;28;20026;-69
2023/07/23 08:45:42;;;;;;;2.40;1.10;;;;;;;;;;8239938;28;20046;-69
2023/07/23 08:49:42;;;;;;;3.55;1.20;;;;;;;;;;8242898;28;20053;-69
2023/07/23 08:53:43;;;;;;;1.33;1.25;;;;;;;;;;8230580;28;20030;-70
2023/07/23 08:57:44;;;;;;;1.10;1.00;;;;;;;;;;8231846;28;20830;-69
2023/07/23 09:01:44;;;;;;;1.30;1.20;;;;;;;;;;8241156;28;20113;-69
2023/07/23 09:05:44;;;;;;;1.40;1.30;;;;;;;;;;8240845;28;20464;-69
2023/07/23 09:09:46;;;;;;;1.55;1.10;;;;;;;;;;8242527;28;20026;-69
2023/07/23 09:13:47;;;;;;;3.43;1.10;;;;;;;;;;8242620;28;20022;-69
2023/07/23 09:17:50;;;;;;;2.58;1.20;;;;;;;;;;8239013;28;20040;-69
2023/07/23 09:21:55;;;;;;;1.70;1.00;;;;;;;;;;8241378;28;20030;-69
2023/07/23 09:25:59;;;;;;;2.45;1.20;;;;;;;;;;8242731;28;20050;-70
2023/07/23 09:30:00;;;;;;;1.33;1.20;;;;;;;;;;8241485;28;20698;-69
2023/07/23 09:34:00;;;;;;;1.15;1.10;;;;;;;;;;8238996;28;20038;-69
2023/07/23 09:38:01;;;;;;;1.30;1.10;;;;;;;;;;8240612;28;20671;-69
2023/07/23 09:42:02;;;;;;;1.30;1.20;;;;;;;;;;8241573;28;20042;-69
2023/07/23 09:46:03;;;;;;;1.23;1.20;;;;;;;;;;8236418;28;20038;-69
2023/07/23 09:50:04;;;;;;;2.67;1.20;;;;;;;;;;8240489;28;20113;-69
2023/07/23 09:54:04;;;;;;;1.33;1.20;;;;;;;;;;8223549;28;20022;-69
2023/07/23 09:58:05;;;;;;;4.40;1.20;;;;;;;;;;8228759;28;20023;-69
2023/07/23 10:02:07;;;;;;;2.10;1.10;;;;;;;;;;8222428;28;20038;-69
2023/07/23 10:06:11;;;;;;;1.17;1.08;;;;;;;;;;8223950;28;20129;-70
2023/07/23 10:10:14;;;;;;;1.33;1.20;;;;;;;;;;8243197;28;20030;-69
2023/07/23 10:14:15;;;;;;;1.30;1.20;;;;;;;;;;8245145;28;20034;-69
2023/07/23 10:18:15;;;;;;;1.20;1.10;;;;;;;;;;8242785;28;20544;-69
2023/07/23 10:22:16;;;;;;;1.65;1.20;;;;;;;;;;8240153;28;20285;-69
2023/07/23 10:26:20;;;;;;;1.53;1.37;;;;;;;;;;8248641;28;20034;-70
2023/07/23 10:30:21;;;;;;;4.05;1.20;;;;;;;;;;8231955;28;20042;-70
2023/07/23 10:34:21;;;;;;;4.28;1.20;;;;;;;;;;8226949;28;20034;-70
2023/07/23 10:38:25;;;;;;;1.38;1.27;;;;;;;;;;8246246;28;20755;-69
2023/07/23 10:42:34;;;;;;;8.65;1.40;;;;;;;;;;8246557;28;20125;-69
2023/07/23 10:46:35;;;;;;;2.17;1.30;;;;;;;;;;8244011;28;20037;-69
2023/07/23 10:50:36;;;;;;;5.13;1.40;;;;;;;;;;8227573;28;20053;-69
2023/07/23 10:54:37;;;;;;;2.13;1.30;;;;;;;;;;8248441;28;20640;-69
2023/07/23 10:58:38;;;;;;;2.67;1.20;;;;;;;;;;8227154;28;20227;-69
2023/07/23 11:02:45;;;;;;;6.32;1.40;;;;;;;;;;8245457;28;20116;-69
2023/07/23 11:06:56;;;;;;;2.80;1.20;;;;;;;;;;8221290;28;20022;-69
2023/07/23 11:10:57;;;;;;;2.53;1.40;;;;;;;;;;8247588;28;20021;-69
2023/07/23 11:14:57;;;;;;;1.38;1.20;;;;;;;;;;8247063;28;20045;-69
2023/07/23 11:18:58;;;;;;;3.38;1.20;;;;;;;;;;8245417;28;20030;-69
2023/07/23 11:22:58;;;;;;;2.97;1.50;;;;;;;;;;8242502;28;20025;-69
2023/07/23 11:27:00;;;;;;;2.03;1.63;;;;;;;;;;8243030;28;20132;-69
2023/07/23 11:31:02;;;;;;;1.77;1.50;;;;;;;;;;8237082;28;20053;-70
2023/07/23 11:35:03;;;;;;;6.50;1.70;;;;;;;;;;8240338;28;20056;-69
2023/07/23 11:39:04;;;;;;;3.60;1.50;;;;;;;;;;8226683;28;20030;-69
2023/07/23 11:43:05;;;;;;;5.45;1.70;;;;;;;;;;8242569;28;20037;-70
2023/07/23 11:47:05;;;;;;;3.67;1.55;;;;;;;;;;8240203;28;20979;-69
2023/07/23 11:51:05;;;;;;;1.60;1.50;;;;;;;;;;8242163;28;20018;-69
2023/07/23 11:55:06;;;;;;;2.80;1.80;;;;;;;;;;8242552;28;20034;-69
2023/07/23 11:59:08;;;;;;;2.83;1.70;;;;;;;;;;8240046;28;20022;-69
2023/07/23 12:03:09;;;;;;;4.07;2.10;;;;;;;;;;8229052;28;20582;-70
2023/07/23 12:07:09;;;;;;;4.25;1.60;;;;;;;;;;8236979;28;20985;-69
2023/07/23 12:11:14;;;;;;;3.22;1.77;;;;;;;;;;8236309;28;20032;-70
2023/07/23 12:15:16;;;;;;;3.92;1.90;;;;;;;;;;8228514;28;20027;-69
2023/07/23 12:19:18;;;;;;;2.73;2.20;;;;;;;;;;8244416;28;20939;-69
2023/07/23 12:23:20;;;;;;;3.92;2.67;;;;;;;;;;8244670;28;20026;-71
2023/07/23 12:27:21;;;;;;;2.50;2.20;;;;;;;;;;8233247;28;20030;-71
2023/07/23 12:31:21;;;;;;;2.22;1.85;;;;;;;;;;8223402;28;20078;-71
2023/07/23 12:35:21;;;;;;;2.30;1.90;;;;;;;;;;8239818;28;20585;-71
2023/07/23 12:39:21;;;;;;;4.72;1.90;;;;;;;;;;8239799;28;20108;-72
2023/07/23 12:43:21;;;;;;;3.72;2.30;;;;;;;;;;8240381;28;20789;-70
2023/07/23 12:47:22;;;;;;;8.13;2.22;;;;;;;;;;8238009;28;20041;-72
2023/07/23 12:51:22;;;;;;;3.92;2.08;;;;;;;;;;8239030;28;20117;-72
2023/07/23 12:55:24;;;;;;;5.43;2.00;;;;;;;;;;8240351;28;20701;-72
2023/07/23 12:59:24;;;;;;;1.90;1.80;;;;;;;;;;8239409;28;20355;-72
2023/07/23 13:03:24;;;;;;;2.50;1.83;;;;;;;;;;8239194;28;20038;-71
2023/07/23 13:07:24;;;;;;;1.92;1.80;;;;;;;;;;8241638;28;20037;-72
2023/07/23 13:11:24;;;;;;;4.43;2.17;;;;;;;;;;8238999;28;20112;-71
2023/07/23 13:15:24;;;;;;;2.42;2.20;;;;;;;;;;8239872;28;20189;-71
2023/07/23 13:19:25;;;;;;;2.40;1.90;;;;;;;;;;8241470;28;20022;-72
2023/07/23 13:23:25;;;;;;;7.32;2.33;;;;;;;;;;8240398;28;20037;-71
2023/07/23 13:27:25;;;;;;;5.25;2.00;;;;;;;;;;8238200;28;20018;-71
2023/07/23 13:31:25;;;;;;;6.47;1.88;;;;;;;;;;8238176;28;20069;-71
2023/07/23 13:35:26;;;;;;;2.63;1.73;;;;;;;;;;8239476;28;20490;-71
2023/07/23 13:39:26;;;;;;;3.58;1.55;;;;;;;;;;8238959;28;20030;-71
2023/07/23 13:43:27;;;;;;;1.80;1.70;;;;;;;;;;8240672;28;20034;-71
2023/07/23 13:47:27;;;;;;;2.20;1.53;;;;;;;;;;8237249;28;20295;-71
2023/07/23 13:51:27;;;;;;;5.20;1.58;;;;;;;;;;8239033;28;20293;-71
2023/07/23 13:55:27;;;;;;;3.30;1.33;;;;;;;;;;8238032;28;20034;-71
2023/07/23 13:59:31;;;;;;;1.60;1.50;;;;;;;;;;8237694;28;20089;-71
2023/07/23 14:03:32;;;;;;;1.50;1.40;;;;;;;;;;8219937;28;20038;-71
2023/07/23 14:07:32;;;;;;;2.50;1.60;;;;;;;;;;8237135;28;21814;-71
2023/07/23 14:11:32;;;;;;;2.03;1.60;;;;;;;;;;8235609;28;20072;-71
2023/07/23 14:15:33;;;;;;;5.07;1.63;;;;;;;;;;8219492;28;20048;-71
2023/07/23 14:19:33;;;;;;;1.50;1.40;;;;;;;;;;8237200;28;20764;-71
2023/07/23 14:23:34;;;;;;;2.33;1.50;;;;;;;;;;8237109;28;20034;-72
2023/07/23 14:27:35;;;;;;;1.60;1.50;;;;;;;;;;8236235;28;20029;-71
2023/07/23 14:31:35;;;;;;;1.50;1.40;;;;;;;;;;8235209;28;20037;-71
2023/07/23 14:35:35;;;;;;;3.80;1.50;;;;;;;;;;8224008;28;20121;-71
2023/07/23 14:39:39;;;;;;;2.65;1.40;;;;;;;;;;8237831;28;20031;-71
2023/07/23 14:43:39;;;;;;;4.32;1.50;;;;;;;;;;8237055;28;20136;-71
2023/07/23 14:47:39;;;;;;;3.83;1.60;;;;;;;;;;8234285;28;20034;-71
2023/07/23 14:51:39;;;;;;;1.52;1.42;;;;;;;;;;8234824;28;20529;-71
2023/07/23 14:55:39;;;;;;;3.05;1.67;;;;;;;;;;8236503;28;20029;-71
2023/07/23 14:59:40;;;;;;;5.93;1.65;;;;;;;;;;8236975;28;20022;-71
2023/07/23 15:03:40;;;;;;;2.37;1.43;;;;;;;;;;8235374;28;20042;-71
2023/07/23 15:07:40;;;;;;;1.63;1.52;;;;;;;;;;8236825;28;20034;-71
2023/07/23 15:11:40;;;;;;;2.15;1.50;;;;;;;;;;8240224;28;20026;-72
2023/07/23 15:15:41;;;;;;;3.05;1.27;;;;;;;;;;8240944;28;20038;-72
2023/07/23 15:19:42;;;;;;;3.80;1.58;;;;;;;;;;8239425;28;20049;-71
2023/07/23 15:23:42;;;;;;;4.20;1.55;;;;;;;;;;8240854;28;20062;-71
2023/07/23 15:27:43;;;;;;;2.53;1.70;;;;;;;;;;8239425;28;20037;-71
2023/07/23 15:31:43;;;;;;;2.75;1.73;;;;;;;;;;8221459;28;20035;-71
2023/07/23 15:35:44;;;;;;;2.08;1.77;;;;;;;;;;8242232;28;20717;-71
2023/07/23 15:39:44;;;;;;;4.13;1.70;;;;;;;;;;8242986;28;20025;-71
2023/07/23 15:43:44;;;;;;;1.80;1.70;;;;;;;;;;8243773;28;20018;-71
2023/07/23 15:47:45;;;;;;;3.83;1.80;;;;;;;;;;8241495;28;20746;-71
2023/07/23 15:51:45;;;;;;;2.90;2.03;;;;;;;;;;8243014;28;20073;-70
2023/07/23 15:55:45;;;;;;;3.25;1.90;;;;;;;;;;8241489;28;20710;-70
2023/07/23 15:59:45;;;;;;;3.58;2.10;;;;;;;;;;8238816;28;20026;-70
2023/07/23 16:03:45;;;;;;;4.63;1.80;;;;;;;;;;8241585;28;20100;-69
2023/07/23 16:07:46;;;;;;;2.78;1.60;;;;;;;;;;8240928;28;20040;-69
2023/07/23 16:11:47;;;;;;;2.00;1.80;;;;;;;;;;8226299;28;20061;-70
2023/07/23 16:15:47;;;;;;;2.30;1.70;;;;;;;;;;8239065;28;20073;-70
2023/07/23 16:19:47;;;;;;;3.33;1.90;;;;;;;;;;8241227;28;20073;-71
2023/07/23 16:23:47;;;;;;;2.08;1.70;;;;;;;;;;8228059;28;20975;-71
2023/07/23 16:27:47;;;;;;;1.63;1.52;;;;;;;;;;8242391;28;20027;-72
2023/07/23 16:31:48;;;;;;;2.30;1.65;;;;;;;;;;8242255;28;20076;-71
2023/07/23 16:35:49;;;;;;;3.78;1.85;;;;;;;;;;8243220;28;20974;-71
2023/07/23 16:39:50;;;;;;;2.55;1.80;;;;;;;;;;8241304;28;20091;-73
2023/07/23 16:43:52;;;;;;;2.55;1.73;;;;;;;;;;8244864;28;20031;-71
2023/07/23 16:47:53;;;;;;;3.83;1.90;;;;;;;;;;8241350;28;20031;-71
2023/07/23 16:51:53;;;;;;;2.25;1.70;;;;;;;;;;8242490;28;20029;-71
2023/07/23 16:55:53;;;;;;;2.13;1.88;;;;;;;;;;8242334;28;20061;-71
2023/07/23 16:59:53;;;;;;;1.85;1.75;;;;;;;;;;8239556;28;20105;-72
2023/07/23 17:03:53;;;;;;;1.95;1.77;;;;;;;;;;8241889;28;20084;-71
2023/07/23 17:07:53;;;;;;;2.53;1.70;;;;;;;;;;8243359;28;20034;-71
2023/07/23 17:11:54;;;;;;;1.92;1.70;;;;;;;;;;8240820;28;20029;-71
2023/07/23 17:15:54;;;;;;;5.85;1.63;;;;;;;;;;8237333;28;20043;-71
2023/07/23 17:19:54;;;;;;;1.80;1.70;;;;;;;;;;8238877;28;20033;-70
2023/07/23 17:23:54;;;;;;;3.07;1.80;;;;;;;;;;8238109;28;20029;-71
2023/07/23 17:27:55;;;;;;;4.70;1.80;;;;;;;;;;8240373;28;20133;-70
2023/07/23 17:31:55;;;;;;;2.17;1.88;;;;;;;;;;8239229;28;20453;-70
2023/07/23 17:35:55;;;;;;;1.43;1.33;;;;;;;;;;8239614;28;20121;-69
2023/07/23 17:39:55;;;;;;;1.70;1.60;;;;;;;;;;8240973;28;20137;-69
2023/07/23 17:43:56;;;;;;;5.32;1.55;;;;;;;;;;8239888;28;20049;-69
2023/07/23 17:47:56;;;;;;;1.70;1.60;;;;;;;;;;8241176;28;20129;-70
2023/07/23 17:51:57;;;;;;;1.70;1.60;;;;;;;;;;8239309;28;20158;-69
2023/07/23 17:55:57;;;;;;;3.20;1.50;;;;;;;;;;8242060;28;20025;-70
2023/07/23 17:59:57;;;;;;;2.00;1.80;;;;;;;;;;8240441;28;20124;-70
2023/07/23 18:04:00;;;;;;;1.55;1.45;;;;;;;;;;8239242;28;20778;-70
2023/07/23 18:08:00;;;;;;;1.38;1.27;;;;;;;;;;8237568;28;20042;-70
2023/07/23 18:12:00;;;;;;;6.63;1.87;;;;;;;;;;8238499;28;20088;-70
2023/07/23 18:16:01;;;;;;;1.50;1.40;;;;;;;;;;8239620;28;20553;-70
2023/07/23 18:20:02;;;;;;;1.95;1.40;;;;;;;;;;8239177;28;21231;-71
2023/07/23 18:24:03;;;;;;;1.90;1.70;;;;;;;;;;8220959;28;20145;-70
2023/07/23 18:28:03;;;;;;;6.05;2.00;;;;;;;;;;8236871;28;20509;-70
2023/07/23 18:32:04;;;;;;;2.35;1.73;;;;;;;;;;8236432;28;20064;-70
2023/07/23 18:36:04;;;;;;;1.87;1.70;;;;;;;;;;8237624;28;20022;-69
2023/07/23 18:40:04;;;;;;;2.28;1.80;;;;;;;;;;8236971;28;20273;-69
2023/07/23 18:44:04;;;;;;;2.10;1.65;;;;;;;;;;8236831;28;20734;-69
2023/07/23 18:48:05;;;;;;;2.10;1.60;;;;;;;;;;8243458;28;20038;-70
2023/07/23 18:52:05;;;;;;;6.53;1.87;;;;;;;;;;8246538;28;20289;-69
2023/07/23 18:56:05;;;;;;;2.65;1.83;;;;;;;;;;8245104;28;20057;-70
2023/07/23 19:00:06;;;;;;;1.60;1.50;;;;;;;;;;8243831;28;20049;-70
2023/07/23 19:04:06;;;;;;;3.85;1.88;;;;;;;;;;8240972;28;20600;-70
2023/07/23 19:08:06;;;;;;;3.58;1.70;;;;;;;;;;8244554;28;20029;-69
2023/07/23 19:12:07;;;;;;;2.78;1.70;;;;;;;;;;8244609;28;20069;-69
2023/07/23 19:16:07;;;;;;;1.98;1.67;;;;;;;;;;8245648;28;20030;-70
2023/07/23 19:20:07;;;;;;;1.75;1.55;;;;;;;;;;8241288;28;20034;-70
2023/07/23 19:24:08;;;;;;;2.30;1.83;;;;;;;;;;8240606;28;20026;-70
2023/07/23 19:28:08;;;;;;;2.28;1.60;;;;;;;;;;8242418;28;20036;-71
2023/07/23 19:32:08;;;;;;;1.87;1.70;;;;;;;;;;8230500;28;21158;-71
2023/07/23 19:36:08;;;;;;;1.90;1.60;;;;;;;;;;8241986;28;20026;-71
2023/07/23 19:40:09;;;;;;;1.60;1.50;;;;;;;;;;8241456;28;20037;-71
2023/07/23 19:44:10;;;;;;;3.05;1.55;;;;;;;;;;8224755;28;20363;-70
2023/07/23 19:48:10;;;;;;;2.65;1.60;;;;;;;;;;8243054;28;20030;-70
2023/07/23 19:52:10;;;;;;;1.83;1.60;;;;;;;;;;8241927;28;20022;-70
2023/07/23 19:56:14;;;;;;;2.40;1.90;;;;;;;;;;8239955;28;20026;-70
2023/07/23 20:00:15;;;;;;;2.13;1.80;;;;;;;;;;8240386;28;20491;-70
2023/07/23 20:04:15;;;;;;;2.00;1.80;;;;;;;;;;8234259;28;20693;-70
2023/07/23 20:08:15;;;;;;;7.22;1.83;;;;;;;;;;8240825;28;20068;-71
2023/07/23 20:12:16;;;;;;;7.00;1.80;;;;;;;;;;8240287;28;20140;-70
2023/07/23 20:16:17;;;;;;;1.80;1.70;;;;;;;;;;8244450;28;20041;-70
2023/07/23 20:20:18;;;;;;;7.30;1.80;;;;;;;;;;8241701;28;20033;-70
2023/07/23 20:24:20;;;;;;;2.95;1.63;;;;;;;;;;8247083;28;20113;-69
2023/07/23 20:28:20;;;;;;;1.98;1.70;;;;;;;;;;8240165;28;20038;-70
2023/07/23 20:32:20;;;;;;;3.83;1.80;;;;;;;;;;8238361;28;20071;-70
2023/07/23 20:36:22;;;;;;;4.70;1.70;;;;;;;;;;8240223;28;20390;-70
2023/07/23 20:40:22;;;;;;;1.73;1.40;;;;;;;;;;8231612;28;20589;-70
2023/07/23 20:44:22;;;;;;;2.53;1.70;;;;;;;;;;8243972;28;20073;-71
2023/07/23 20:48:22;;;;;;;1.50;1.35;;;;;;;;;;8239907;28;20033;-71
2023/07/23 20:52:26;;;;;;;2.17;1.50;;;;;;;;;;8242854;28;20034;-71
2023/07/23 20:56:26;;;;;;;5.10;1.90;;;;;;;;;;8235870;28;21273;-71
2023/07/23 21:00:27;;;;;;;2.07;1.37;;;;;;;;;;8241678;28;20030;-71
2023/07/23 21:04:28;;;;;;;1.65;1.50;;;;;;;;;;8228143;28;20029;-71
2023/07/23 21:08:29;;;;;;;1.60;1.50;;;;;;;;;;8229598;28;20026;-71
2023/07/23 21:12:29;;;;;;;1.85;1.73;;;;;;;;;;8231963;28;20133;-69
2023/07/23 21:16:31;;;;;;;1.77;1.67;;;;;;;;;;8235412;28;20038;-70
2023/07/23 21:20:31;;;;;;;1.67;1.58;;;;;;;;;;8244675;28;20054;-70
2023/07/23 21:24:32;;;;;;;1.85;1.67;;;;;;;;;;8237072;28;20114;-71
2023/07/23 21:28:32;;;;;;;2.00;1.80;;;;;;;;;;8243552;28;20022;-71
2023/07/23 21:32:33;;;;;;;1.90;1.70;;;;;;;;;;8244971;28;20663;-70
2023/07/23 21:36:34;;;;;;;2.00;1.80;;;;;;;;;;8226336;28;20348;-69
2023/07/23 21:40:35;;;;;;;1.92;1.67;;;;;;;;;;8234759;28;20030;-70
2023/07/23 21:44:37;;;;;;;3.50;1.67;;;;;;;;;;8230399;28;20087;-69
2023/07/23 21:48:38;;;;;;;2.92;1.85;;;;;;;;;;8222221;28;21029;-69
2023/07/23 21:52:38;;;;;;;3.25;1.70;;;;;;;;;;8242702;28;20160;-70
2023/07/23 21:56:38;;;;;;;3.22;1.70;;;;;;;;;;8223460;28;21045;-71
2023/07/23 22:00:38;;;;;;;7.05;1.90;;;;;;;;;;8239784;28;20581;-73
2023/07/23 22:04:39;;;;;;;1.90;1.60;;;;;;;;;;8224570;28;20697;-71
2023/07/23 22:08:39;;;;;;;1.73;1.63;;;;;;;;;;8239745;28;20050;-71
2023/07/23 22:12:39;;;;;;;1.70;1.60;;;;;;;;;;8237163;28;20061;-71
2023/07/23 22:16:39;;;;;;;1.77;1.65;;;;;;;;;;8223701;28;20120;-71
2023/07/23 22:20:40;;;;;;;1.60;1.50;;;;;;;;;;8243349;28;20120;-71
2023/07/23 22:24:40;;;;;;;1.70;1.60;;;;;;;;;;8247215;28;20312;-71
2023/07/23 22:28:40;;;;;;;1.60;1.50;;;;;;;;;;8235944;28;20509;-70
2023/07/23 22:32:40;;;;;;;1.60;1.50;;;;;;;;;;8244209;28;20462;-70
2023/07/23 22:36:41;;;;;;;2.85;1.80;;;;;;;;;;8244818;28;20610;-70
2023/07/23 22:40:41;;;;;;;3.58;1.40;;;;;;;;;;8236495;28;20026;-71
2023/07/23 22:44:42;;;;;;;3.70;1.40;;;;;;;;;;8242255;28;20022;-70
2023/07/23 22:48:43;;;;;;;2.03;1.60;;;;;;;;;;8243928;28;20625;-70
2023/07/23 22:52:43;;;;;;;2.53;1.80;;;;;;;;;;8227147;28;20895;-70
2023/07/23 22:56:43;;;;;;;3.13;1.77;;;;;;;;;;8243217;28;20810;-70
2023/07/23 23:00:43;;;;;;;3.15;2.00;;;;;;;;;;8244519;28;20026;-70
2023/07/23 23:04:43;;;;;;;2.47;2.00;;;;;;;;;;8238239;28;20080;-70
2023/07/23 23:08:44;;;;;;;2.53;1.85;;;;;;;;;;8239964;28;20021;-70
2023/07/23 23:12:44;;;;;;;2.28;1.95;;;;;;;;;;8239896;28;20026;-70
2023/07/23 23:16:44;;;;;;;5.43;1.67;;;;;;;;;;8242130;28;20041;-70
2023/07/23 23:20:44;;;;;;;1.83;1.73;;;;;;;;;;8242202;28;20069;-70
2023/07/23 23:24:45;;;;;;;3.05;1.70;;;;;;;;;;8243403;28;20037;-70
2023/07/23 23:28:45;;;;;;;3.10;2.00;;;;;;;;;;8241573;28;20021;-69
2023/07/23 23:32:45;;;;;;;2.23;1.70;;;;;;;;;;8223938;28;20084;-70
2023/07/23 23:36:45;;;;;;;3.55;1.77;;;;;;;;;;8237733;28;20354;-70
2023/07/23 23:40:46;;;;;;;3.47;1.73;;;;;;;;;;8243750;28;20026;-70
2023/07/23 23:44:46;;;;;;;1.73;1.60;;;;;;;;;;8240911;28;20042;-70
2023/07/23 23:48:46;;;;;;;2.40;1.87;;;;;;;;;;8239593;28;20035;-70
2023/07/23 23:52:46;;;;;;;2.15;1.50;;;;;;;;;;8240830;28;20038;-70
2023/07/23 23:56:46;;;;;;;2.10;1.80;;;;;;;;;;8241837;28;20869;-70
